Time;durP1;ratioP1;P1;durP2;ratioP2;P2;SDS_P1;SDS_P2;PMS_P1;PMS_P2;Temp;Humidity;BMP_temperature;BMP_pressure;BME280_temperature;BME280_humidity;BME280_pressure;Samples;Min_cycle;Max_cycle;Signal;HPM_P1;HPM_P2
2022/08/08 00:01:30;;;;;;;;;;;;;;;;;;5046912;28;19929;-53
2022/08/08 00:03:56;;;;;;;;;;;;;;;;;;5045957;28;20004;-55
2022/08/08 00:06:22;;;;;;;;;;;;;;;;;;5046887;28;19921;-51
2022/08/08 00:08:48;;;;;;;;;;;;;;;;;;5046354;28;20393;-55
2022/08/08 00:11:14;;;;;;;;;;;;;;;;;;5046956;28;19921;-53
2022/08/08 00:13:40;;;;;;;;;;;;;;;;;;5047638;28;20654;-54
2022/08/08 00:16:06;;;;;;;;;;;;;;;;;;5046221;28;19968;-54
2022/08/08 00:18:32;;;;;;;;;;;;;;;;;;5045963;28;19927;-55
2022/08/08 00:20:58;;;;;;;;;;;;;;;;;;5046069;28;20395;-54
2022/08/08 00:23:24;;;;;;;;;;;;;;;;;;5028600;28;19932;-56
2022/08/08 00:25:50;;;;;;;;;;;;;;;;;;5045783;28;20293;-57
2022/08/08 00:28:17;;;;;;;;;;;;;;;;;;5028680;28;20017;-58
2022/08/08 00:30:43;;;;;;;;;;;;;;;;;;5047062;28;19932;-52
2022/08/08 00:33:09;;;;;;;;;;;;;;;;;;5045662;28;19928;-51
2022/08/08 00:35:35;;;;;;;;;;;;;;;;;;5046483;28;20428;-53
2022/08/08 00:38:01;;;;;;;;;;;;;;;;;;5044369;28;19924;-52
2022/08/08 00:40:27;;;;;;;;;;;;;;;;;;5046678;28;19950;-54
2022/08/08 00:42:53;;;;;;;;;;;;;;;;;;5046189;28;19931;-53
2022/08/08 00:45:19;;;;;;;;;;;;;;;;;;5045768;28;20404;-55
2022/08/08 00:47:45;;;;;;;;;;;;;;;;;;5046871;28;19920;-60
2022/08/08 00:50:11;;;;;;;;;;;;;;;;;;5028829;28;20532;-54
2022/08/08 00:52:36;;;;;;;;;;;;;;;;;;5045426;28;20447;-55
2022/08/08 00:55:02;;;;;;;;;;;;;;;;;;5045825;28;19921;-56
2022/08/08 00:57:28;;;;;;;;;;;;;;;;;;5046257;28;20012;-55
2022/08/08 00:59:54;;;;;;;;;;;;;;;;;;5045332;28;20400;-51
2022/08/08 01:02:20;;;;;;;;;;;;;;;;;;5046099;28;20470;-55
2022/08/08 01:04:46;;;;;;;;;;;;;;;;;;5045822;28;19924;-56
2022/08/08 01:07:12;;;;;;;;;;;;;;;;;;5046209;28;19921;-54
2022/08/08 01:09:38;;;;;;;;;;;;;;;;;;5046500;28;19970;-54
2022/08/08 01:12:04;;;;;;;;;;;;;;;;;;5045469;28;19920;-55
2022/08/08 01:14:29;;;;;;;;;;;;;;;;;;5045633;28;20012;-53
2022/08/08 01:16:55;;;;;;;;;;;;;;;;;;5045788;28;19931;-54
2022/08/08 01:19:21;;;;;;;;;;;;;;;;;;5045975;28;20380;-53
2022/08/08 01:21:47;;;;;;;;;;;;;;;;;;5045282;28;19920;-55
2022/08/08 01:24:13;;;;;;;;;;;;;;;;;;5046328;28;20093;-55
2022/08/08 01:26:39;;;;;;;;;;;;;;;;;;5045956;28;19971;-56
2022/08/08 01:29:05;;;;;;;;;;;;;;;;;;5045116;28;20455;-52
2022/08/08 01:31:31;;;;;;;;;;;;;;;;;;5046213;28;20323;-56
2022/08/08 01:33:57;;;;;;;;;;;;;;;;;;5046539;28;19920;-51
2022/08/08 01:36:23;;;;;;;;;;;;;;;;;;5049037;28;19928;-55
2022/08/08 01:38:49;;;;;;;;;;;;;;;;;;5049447;28;19920;-53
2022/08/08 01:41:15;;;;;;;;;;;;;;;;;;5049543;28;19921;-54
2022/08/08 01:43:41;;;;;;;;;;;;;;;;;;5050254;28;19924;-54
2022/08/08 01:46:06;;;;;;;;;;;;;;;;;;5049065;28;19943;-54
2022/08/08 01:48:32;;;;;;;;;;;;;;;;;;5048430;28;19924;-52
2022/08/08 01:50:58;;;;;;;;;;;;;;;;;;5049184;28;20063;-55
2022/08/08 01:53:24;;;;;;;;;;;;;;;;;;5049454;28;19928;-51
2022/08/08 01:55:50;;;;;;;;;;;;;;;;;;5048476;28;19928;-55
2022/08/08 01:58:16;;;;;;;;;;;;;;;;;;5049313;28;20292;-54
2022/08/08 02:00:42;;;;;;;;;;;;;;;;;;5049711;28;19927;-55
2022/08/08 02:03:08;;;;;;;;;;;;;;;;;;5048123;28;20007;-53
2022/08/08 02:05:33;;;;;;;;;;;;;;;;;;5049171;28;19931;-55
2022/08/08 02:08:00;;;;;;;;;;;;;;;;;;5048892;28;19931;-54
2022/08/08 02:10:26;;;;;;;;;;;;;;;;;;5048608;28;19982;-55
2022/08/08 02:12:52;;;;;;;;;;;;;;;;;;5048470;28;19936;-56
2022/08/08 02:15:18;;;;;;;;;;;;;;;;;;5049031;28;20023;-55
2022/08/08 02:17:44;;;;;;;;;;;;;;;;;;5048961;28;19921;-51
2022/08/08 02:20:11;;;;;;;;;;;;;;;;;;5049361;28;19924;-50
2022/08/08 02:22:37;;;;;;;;;;;;;;;;;;5049040;28;19921;-53
2022/08/08 02:25:02;;;;;;;;;;;;;;;;;;5047970;28;19928;-53
2022/08/08 02:27:28;;;;;;;;;;;;;;;;;;5048830;28;19929;-53
2022/08/08 02:29:54;;;;;;;;;;;;;;;;;;5048543;28;19975;-51
2022/08/08 02:32:20;;;;;;;;;;;;;;;;;;5047830;28;19968;-52
2022/08/08 02:34:46;;;;;;;;;;;;;;;;;;5048450;28;19931;-56
2022/08/08 02:37:12;;;;;;;;;;;;;;;;;;5049208;28;20443;-53
2022/08/08 02:39:38;;;;;;;;;;;;;;;;;;5047973;28;19925;-55
2022/08/08 02:42:05;;;;;;;;;;;;;;;;;;5048010;28;19974;-50
2022/08/08 02:44:31;;;;;;;;;;;;;;;;;;5047287;28;20015;-54
2022/08/08 02:46:57;;;;;;;;;;;;;;;;;;5048025;28;20003;-53
2022/08/08 02:49:23;;;;;;;;;;;;;;;;;;5048114;28;19925;-53
2022/08/08 02:51:48;;;;;;;;;;;;;;;;;;5047281;28;19924;-53
2022/08/08 02:54:15;;;;;;;;;;;;;;;;;;5048884;28;20019;-52
2022/08/08 02:56:40;;;;;;;;;;;;;;;;;;5048849;28;19931;-53
2022/08/08 02:59:06;;;;;;;;;;;;;;;;;;5046859;28;20019;-53
2022/08/08 03:01:32;;;;;;;;;;;;;;;;;;5048240;28;19931;-53
2022/08/08 03:03:58;;;;;;;;;;;;;;;;;;5047925;28;19924;-56
2022/08/08 03:06:26;;;;;;;;;;;;;;;;;;5047557;28;20281;-53
2022/08/08 03:08:52;;;;;;;;;;;;;;;;;;5047853;28;19920;-56
2022/08/08 03:11:18;;;;;;;;;;;;;;;;;;5048026;28;19950;-53
2022/08/08 03:13:45;;;;;;;;;;;;;;;;;;5047722;28;20336;-56
2022/08/08 03:16:11;;;;;;;;;;;;;;;;;;5048230;28;19921;-52
2022/08/08 03:18:37;;;;;;;;;;;;;;;;;;5047892;28;20012;-55
2022/08/08 03:21:03;;;;;;;;;;;;;;;;;;5046774;28;19932;-54
2022/08/08 03:23:29;;;;;;;;;;;;;;;;;;5047691;28;19920;-55
2022/08/08 03:25:56;;;;;;;;;;;;;;;;;;5047383;28;20015;-55
2022/08/08 03:28:22;;;;;;;;;;;;;;;;;;5046906;28;19921;-55
2022/08/08 03:30:48;;;;;;;;;;;;;;;;;;5047178;28;20071;-56
2022/08/08 03:33:17;;;;;;;;;;;;;;;;;;5048183;28;20359;-50
2022/08/08 03:35:43;;;;;;;;;;;;;;;;;;5029327;28;19925;-55
2022/08/08 03:38:09;;;;;;;;;;;;;;;;;;5047256;28;19931;-52
2022/08/08 03:40:35;;;;;;;;;;;;;;;;;;5047573;28;19981;-53
2022/08/08 03:43:01;;;;;;;;;;;;;;;;;;5046346;28;19920;-50
2022/08/08 03:45:26;;;;;;;;;;;;;;;;;;5047159;28;19921;-54
2022/08/08 03:47:52;;;;;;;;;;;;;;;;;;5046588;28;19966;-55
2022/08/08 03:50:18;;;;;;;;;;;;;;;;;;5046890;28;19925;-53
2022/08/08 03:52:45;;;;;;;;;;;;;;;;;;5047777;28;20410;-53
2022/08/08 03:55:11;;;;;;;;;;;;;;;;;;5046725;28;19986;-52
2022/08/08 03:57:37;;;;;;;;;;;;;;;;;;5046507;28;19921;-53
2022/08/08 04:00:02;;;;;;;;;;;;;;;;;;5046396;28;19928;-52
2022/08/08 04:02:28;;;;;;;;;;;;;;;;;;5046443;28;19920;-53
2022/08/08 04:04:54;;;;;;;;;;;;;;;;;;5046744;28;20349;-53
2022/08/08 04:07:20;;;;;;;;;;;;;;;;;;5046862;28;19921;-52
2022/08/08 04:09:46;;;;;;;;;;;;;;;;;;5045097;28;19920;-56
2022/08/08 04:12:12;;;;;;;;;;;;;;;;;;5047227;28;20300;-54
2022/08/08 04:14:38;;;;;;;;;;;;;;;;;;5046618;28;19925;-52
2022/08/08 04:17:04;;;;;;;;;;;;;;;;;;5045705;28;20345;-55
2022/08/08 04:19:30;;;;;;;;;;;;;;;;;;5046770;28;19928;-54
2022/08/08 04:21:56;;;;;;;;;;;;;;;;;;5046295;28;20004;-53
2022/08/08 04:24:21;;;;;;;;;;;;;;;;;;5046011;28;19920;-52
2022/08/08 04:26:47;;;;;;;;;;;;;;;;;;5046178;28;19921;-50
2022/08/08 04:29:13;;;;;;;;;;;;;;;;;;5047040;28;19924;-53
2022/08/08 04:31:39;;;;;;;;;;;;;;;;;;5046061;28;19985;-55
2022/08/08 04:34:05;;;;;;;;;;;;;;;;;;5045990;28;19932;-56
2022/08/08 04:36:31;;;;;;;;;;;;;;;;;;5045570;28;19931;-54
2022/08/08 04:38:57;;;;;;;;;;;;;;;;;;5045578;28;20003;-50
2022/08/08 04:41:23;;;;;;;;;;;;;;;;;;5028521;28;19925;-54
2022/08/08 04:43:49;;;;;;;;;;;;;;;;;;5045891;28;19955;-53
2022/08/08 04:46:15;;;;;;;;;;;;;;;;;;5045371;28;19932;-53
2022/08/08 04:48:42;;;;;;;;;;;;;;;;;;5041821;28;19968;-51
2022/08/08 04:51:08;;;;;;;;;;;;;;;;;;5026373;28;20459;-55
2022/08/08 04:53:34;;;;;;;;;;;;;;;;;;5046592;28;19924;-53
2022/08/08 04:55:59;;;;;;;;;;;;;;;;;;5041027;28;19925;-53
2022/08/08 04:58:25;;;;;;;;;;;;;;;;;;5025753;28;20385;-53
2022/08/08 05:00:51;;;;;;;;;;;;;;;;;;5026320;28;19925;-52
2022/08/08 05:03:17;;;;;;;;;;;;;;;;;;5025625;28;20396;-55
2022/08/08 05:05:43;;;;;;;;;;;;;;;;;;5042384;28;20044;-54
2022/08/08 05:08:10;;;;;;;;;;;;;;;;;;5031868;28;19921;-53
2022/08/08 05:10:36;;;;;;;;;;;;;;;;;;5036997;28;20236;-55
2022/08/08 05:13:02;;;;;;;;;;;;;;;;;;5049220;28;19925;-52
2022/08/08 05:15:28;;;;;;;;;;;;;;;;;;5050272;28;19925;-55
2022/08/08 05:17:54;;;;;;;;;;;;;;;;;;5037279;28;19921;-56
2022/08/08 05:20:20;;;;;;;;;;;;;;;;;;5029439;28;19925;-53
2022/08/08 05:22:47;;;;;;;;;;;;;;;;;;5033572;28;19924;-57
2022/08/08 05:25:12;;;;;;;;;;;;;;;;;;5037442;28;20372;-53
2022/08/08 05:27:38;;;;;;;;;;;;;;;;;;5011548;28;19929;-51
2022/08/08 05:30:09;;;;;;;;;;;;;;;;;;5029699;28;20063;-54
2022/08/08 05:32:35;;;;;;;;;;;;;;;;;;5029926;28;20249;-51
2022/08/08 05:35:01;;;;;;;;;;;;;;;;;;5028899;28;19932;-53
2022/08/08 05:37:30;;;;;;;;;;;;;;;;;;5029808;28;19964;-53
2022/08/08 05:39:55;;;;;;;;;;;;;;;;;;5029210;28;20008;-56
2022/08/08 05:42:21;;;;;;;;;;;;;;;;;;5029264;28;20028;-55
2022/08/08 05:44:47;;;;;;;;;;;;;;;;;;5029626;28;19920;-55
2022/08/08 05:47:13;;;;;;;;;;;;;;;;;;5029935;28;19928;-52
2022/08/08 05:49:39;;;;;;;;;;;;;;;;;;5042166;28;19932;-56
2022/08/08 05:52:05;;;;;;;;;;;;;;;;;;5049006;28;20218;-50
2022/08/08 05:54:31;;;;;;;;;;;;;;;;;;5049188;28;20257;-55
2022/08/08 05:56:57;;;;;;;;;;;;;;;;;;5049232;28;19971;-50
2022/08/08 05:59:23;;;;;;;;;;;;;;;;;;5048421;28;19971;-55
2022/08/08 06:01:49;;;;;;;;;;;;;;;;;;5039544;28;20407;-52
2022/08/08 06:04:15;;;;;;;;;;;;;;;;;;5048805;28;19921;-52
2022/08/08 06:06:41;;;;;;;;;;;;;;;;;;5049056;28;20030;-53
2022/08/08 06:09:07;;;;;;;;;;;;;;;;;;5048116;28;19921;-51
2022/08/08 06:11:33;;;;;;;;;;;;;;;;;;5049235;28;19931;-54
2022/08/08 06:13:59;;;;;;;;;;;;;;;;;;5048831;28;19921;-51
2022/08/08 06:16:25;;;;;;;;;;;;;;;;;;5048446;28;19943;-50
2022/08/08 06:18:50;;;;;;;;;;;;;;;;;;5048563;28;19921;-54
2022/08/08 06:21:16;;;;;;;;;;;;;;;;;;5048445;28;20046;-53
2022/08/08 06:23:42;;;;;;;;;;;;;;;;;;5048710;28;19921;-54
2022/08/08 06:26:08;;;;;;;;;;;;;;;;;;5048695;28;19998;-52
2022/08/08 06:28:34;;;;;;;;;;;;;;;;;;5048842;28;19920;-53
2022/08/08 06:31:00;;;;;;;;;;;;;;;;;;5047840;28;19920;-53
2022/08/08 06:33:26;;;;;;;;;;;;;;;;;;5048841;28;20377;-54
2022/08/08 06:35:52;;;;;;;;;;;;;;;;;;5047384;28;19927;-53
2022/08/08 06:38:18;;;;;;;;;;;;;;;;;;5047614;28;19924;-56
2022/08/08 06:40:44;;;;;;;;;;;;;;;;;;5046089;28;20496;-53
2022/08/08 06:43:10;;;;;;;;;;;;;;;;;;5040358;28;19925;-54
2022/08/08 06:45:37;;;;;;;;;;;;;;;;;;5046355;28;19926;-53
2022/08/08 06:48:03;;;;;;;;;;;;;;;;;;5045690;28;19979;-53
2022/08/08 06:50:31;;;;;;;;;;;;;;;;;;5046167;28;19964;-57
2022/08/08 06:52:57;;;;;;;;;;;;;;;;;;5045288;28;20011;-54
2022/08/08 06:55:24;;;;;;;;;;;;;;;;;;5045503;28;20043;-55
2022/08/08 06:57:50;;;;;;;;;;;;;;;;;;5043668;28;19929;-56
2022/08/08 07:00:16;;;;;;;;;;;;;;;;;;5046328;28;19931;-59
2022/08/08 07:02:42;;;;;;;;;;;;;;;;;;5046964;28;20385;-56
2022/08/08 07:05:08;;;;;;;;;;;;;;;;;;5027298;28;19924;-53
2022/08/08 07:07:34;;;;;;;;;;;;;;;;;;5046224;28;20016;-55
2022/08/08 07:10:00;;;;;;;;;;;;;;;;;;5046537;28;19932;-52
2022/08/08 07:12:25;;;;;;;;;;;;;;;;;;5046204;28;19951;-56
2022/08/08 07:14:51;;;;;;;;;;;;;;;;;;5045796;28;19920;-54
2022/08/08 07:17:17;;;;;;;;;;;;;;;;;;5043261;28;20597;-53
2022/08/08 07:19:43;;;;;;;;;;;;;;;;;;5047565;28;20019;-53
2022/08/08 07:22:10;;;;;;;;;;;;;;;;;;5047202;28;19931;-55
2022/08/08 07:24:36;;;;;;;;;;;;;;;;;;5047868;28;20281;-56
2022/08/08 07:27:02;;;;;;;;;;;;;;;;;;5046816;28;19921;-54
2022/08/08 07:29:28;;;;;;;;;;;;;;;;;;5047568;28;19936;-57
2022/08/08 07:31:54;;;;;;;;;;;;;;;;;;5045899;28;20390;-53
2022/08/08 07:34:20;;;;;;;;;;;;;;;;;;5046706;28;19928;-56
2022/08/08 07:36:46;;;;;;;;;;;;;;;;;;5046449;28;19920;-59
2022/08/08 07:39:11;;;;;;;;;;;;;;;;;;5047524;28;20381;-53
2022/08/08 07:41:40;;;;;;;;;;;;;;;;;;5046731;28;19917;-53
2022/08/08 07:44:05;;;;;;;;;;;;;;;;;;5046769;28;20794;-53
2022/08/08 07:46:31;;;;;;;;;;;;;;;;;;5045440;28;19925;-54
2022/08/08 07:48:57;;;;;;;;;;;;;;;;;;5046004;28;20404;-56
2022/08/08 07:51:23;;;;;;;;;;;;;;;;;;5047052;28;20039;-51
2022/08/08 07:53:49;;;;;;;;;;;;;;;;;;5045019;28;19920;-54
2022/08/08 07:56:16;;;;;;;;;;;;;;;;;;5046891;28;19920;-57
2022/08/08 07:58:42;;;;;;;;;;;;;;;;;;5047777;28;19920;-55
2022/08/08 08:01:11;;;;;;;;;;;;;;;;;;5045412;28;20379;-57
2022/08/08 08:03:36;;;;;;;;;;;;;;;;;;5046833;28;19930;-58
2022/08/08 08:06:02;;;;;;;;;;;;;;;;;;5043147;28;19920;-55
2022/08/08 08:08:28;;;;;;;;;;;;;;;;;;5046417;28;20415;-52
2022/08/08 08:10:54;;;;;;;;;;;;;;;;;;5046740;28;19928;-53
2022/08/08 08:13:20;;;;;;;;;;;;;;;;;;5042800;28;20080;-56
2022/08/08 08:15:46;;;;;;;;;;;;;;;;;;5033928;28;19960;-59
2022/08/08 08:18:12;;;;;;;;;;;;;;;;;;5027191;28;20392;-51
2022/08/08 08:20:38;;;;;;;;;;;;;;;;;;5027101;28;19924;-52
2022/08/08 08:23:04;;;;;;;;;;;;;;;;;;5025709;28;19945;-54
2022/08/08 08:25:29;;;;;;;;;;;;;;;;;;5026906;28;19976;-55
2022/08/08 08:27:55;;;;;;;;;;;;;;;;;;5026648;28;20004;-55
2022/08/08 08:30:21;;;;;;;;;;;;;;;;;;5026122;28;20385;-53
2022/08/08 08:32:47;;;;;;;;;;;;;;;;;;5026355;28;19975;-53
2022/08/08 08:35:13;;;;;;;;;;;;;;;;;;5027074;28;20396;-55
2022/08/08 08:37:39;;;;;;;;;;;;;;;;;;5026343;28;19928;-53
2022/08/08 08:40:05;;;;;;;;;;;;;;;;;;5026499;28;19992;-53
2022/08/08 08:42:31;;;;;;;;;;;;;;;;;;5026460;28;20437;-55
2022/08/08 08:44:56;;;;;;;;;;;;;;;;;;5025675;28;20393;-56
2022/08/08 08:47:22;;;;;;;;;;;;;;;;;;5026636;28;19979;-51
2022/08/08 08:49:48;;;;;;;;;;;;;;;;;;5026117;28;20054;-53
2022/08/08 08:52:14;;;;;;;;;;;;;;;;;;5026561;28;19921;-53
2022/08/08 08:54:40;;;;;;;;;;;;;;;;;;5034431;28;19925;-54
2022/08/08 08:57:06;;;;;;;;;;;;;;;;;;5046173;28;20541;-56
2022/08/08 08:59:32;;;;;;;;;;;;;;;;;;5044796;28;19925;-52
2022/08/08 09:01:58;;;;;;;;;;;;;;;;;;5045635;28;19931;-53
2022/08/08 09:04:24;;;;;;;;;;;;;;;;;;5027759;28;19920;-54
2022/08/08 09:06:50;;;;;;;;;;;;;;;;;;5046029;28;19932;-56
2022/08/08 09:09:16;;;;;;;;;;;;;;;;;;5046258;28;20360;-55
2022/08/08 09:11:42;;;;;;;;;;;;;;;;;;5045859;28;19921;-54
2022/08/08 09:14:08;;;;;;;;;;;;;;;;;;5045766;28;20019;-56
2022/08/08 09:16:34;;;;;;;;;;;;;;;;;;5045902;28;19951;-58
2022/08/08 09:19:00;;;;;;;;;;;;;;;;;;5045048;28;19929;-54
2022/08/08 09:21:26;;;;;;;;;;;;;;;;;;5046275;28;19967;-53
2022/08/08 09:23:52;;;;;;;;;;;;;;;;;;5045454;28;20404;-55
2022/08/08 09:26:18;;;;;;;;;;;;;;;;;;5045159;28;20454;-53
2022/08/08 09:28:44;;;;;;;;;;;;;;;;;;5046506;28;19974;-53
2022/08/08 09:31:10;;;;;;;;;;;;;;;;;;5045811;28;19921;-53
2022/08/08 09:33:36;;;;;;;;;;;;;;;;;;5045684;28;20200;-50
2022/08/08 09:36:02;;;;;;;;;;;;;;;;;;5045336;28;19990;-53
2022/08/08 09:38:28;;;;;;;;;;;;;;;;;;5045942;28;20448;-58
2022/08/08 09:40:54;;;;;;;;;;;;;;;;;;5045168;28;20490;-54
2022/08/08 09:43:20;;;;;;;;;;;;;;;;;;5045932;28;19931;-55
2022/08/08 09:45:46;;;;;;;;;;;;;;;;;;5045905;28;19921;-64
2022/08/08 09:48:12;;;;;;;;;;;;;;;;;;5045723;28;19979;-55
2022/08/08 09:50:37;;;;;;;;;;;;;;;;;;5045669;28;20408;-53
2022/08/08 09:53:05;;;;;;;;;;;;;;;;;;5045611;28;20074;-53
2022/08/08 09:55:31;;;;;;;;;;;;;;;;;;5046891;28;19982;-55
2022/08/08 09:57:56;;;;;;;;;;;;;;;;;;5049075;28;20591;-53
2022/08/08 10:00:23;;;;;;;;;;;;;;;;;;5049553;28;19927;-57
2022/08/08 10:02:49;;;;;;;;;;;;;;;;;;5048548;28;19978;-50
2022/08/08 10:05:17;;;;;;;;;;;;;;;;;;5046215;28;20003;-53
2022/08/08 10:07:44;;;;;;;;;;;;;;;;;;5039545;28;19942;-50
2022/08/08 10:10:09;;;;;;;;;;;;;;;;;;5036253;28;19925;-55
2022/08/08 10:12:35;;;;;;;;;;;;;;;;;;5048936;28;19925;-53
2022/08/08 10:15:01;;;;;;;;;;;;;;;;;;5042791;28;20316;-56
2022/08/08 10:17:27;;;;;;;;;;;;;;;;;;5039908;28;20038;-54
2022/08/08 10:19:53;;;;;;;;;;;;;;;;;;5040304;28;19929;-56
2022/08/08 10:22:19;;;;;;;;;;;;;;;;;;5046297;28;19932;-53
2022/08/08 10:24:45;;;;;;;;;;;;;;;;;;5047633;28;19921;-62
2022/08/08 10:27:11;;;;;;;;;;;;;;;;;;5048333;28;20311;-51
2022/08/08 10:29:37;;;;;;;;;;;;;;;;;;5046869;28;19925;-57
2022/08/08 10:34:48;;;;;;;;;;;;;;;;;;5045504;28;19925;-53
2022/08/08 10:37:14;;;;;;;;;;;;;;;;;;5047346;28;20369;-51
2022/08/08 10:39:40;;;;;;;;;;;;;;;;;;5046964;28;19925;-57
2022/08/08 10:42:06;;;;;;;;;;;;;;;;;;5047048;28;19934;-53
2022/08/08 10:44:32;;;;;;;;;;;;;;;;;;5047097;28;19924;-51
2022/08/08 10:46:58;;;;;;;;;;;;;;;;;;5047728;28;19983;-60
2022/08/08 10:49:24;;;;;;;;;;;;;;;;;;5044436;28;19929;-51
2022/08/08 10:51:50;;;;;;;;;;;;;;;;;;5027307;28;19925;-52
2022/08/08 10:54:16;;;;;;;;;;;;;;;;;;5038593;28;19927;-59
2022/08/08 10:56:42;;;;;;;;;;;;;;;;;;5039205;28;20507;-52
2022/08/08 10:59:08;;;;;;;;;;;;;;;;;;5035373;28;19929;-57
2022/08/08 11:01:34;;;;;;;;;;;;;;;;;;5039755;28;19982;-52
2022/08/08 11:04:00;;;;;;;;;;;;;;;;;;5045013;28;19972;-56
2022/08/08 11:06:25;;;;;;;;;;;;;;;;;;5038072;28;19931;-55
2022/08/08 11:08:51;;;;;;;;;;;;;;;;;;5047211;28;19921;-56
2022/08/08 11:11:17;;;;;;;;;;;;;;;;;;5034810;28;19982;-54
2022/08/08 11:13:43;;;;;;;;;;;;;;;;;;5031223;28;20062;-56
2022/08/08 11:16:12;;;;;;;;;;;;;;;;;;5046301;28;20015;-54
2022/08/08 11:18:38;;;;;;;0.10;0.10;;;;;;;;;;5046303;28;19929;-54
2022/08/08 11:21:05;;;;;;;0.17;0.10;;;;;;;;;;5039494;28;20196;-53
2022/08/08 11:23:33;;;;;;;;;;;;;;;;;;5028776;28;19960;-54
2022/08/08 11:25:59;;;;;;;;;;;;;;;;;;5038484;28;19925;-56
2022/08/08 11:28:25;;;;;;;;;;;;;;;;;;5033276;28;19938;-55
2022/08/08 11:30:51;;;;;;;;;;;;;;;;;;5033194;28;19921;-52
2022/08/08 11:33:18;;;;;;;0.30;0.20;;;;;;;;;;5026765;28;20382;-57
2022/08/08 11:35:44;;;;;;;0.20;0.20;;;;;;;;;;5034231;28;20074;-55
2022/08/08 11:38:12;;;;;;;0.40;0.20;;;;;;;;;;5026201;28;20102;-56
2022/08/08 11:40:38;;;;;;;;;;;;;;;;;;5008844;28;19932;-53
2022/08/08 11:43:04;;;;;;;;;;;;;;;;;;5024747;28;19925;-56
2022/08/08 11:45:30;;;;;;;;;;;;;;;;;;5044104;28;19925;-56
2022/08/08 11:47:56;;;;;;;;;;;;;;;;;;5021674;28;19932;-52
2022/08/08 11:50:23;;;;;;;;;;;;;;;;;;5023662;28;19921;-57
2022/08/08 11:52:51;;;;;;;;;;;;;;;;;;5034387;28;19976;-53
2022/08/08 11:55:17;;;;;;;;;;;;;;;;;;5046186;28;19920;-58
2022/08/08 11:57:42;;;;;;;;;;;;;;;;;;5047043;28;19920;-53
2022/08/08 12:00:08;;;;;;;;;;;;;;;;;;5045227;28;19931;-56
2022/08/08 12:02:34;;;;;;;;;;;;;;;;;;5046607;28;19925;-53
2022/08/08 12:05:00;;;;;;;;;;;;;;;;;;5046066;28;20023;-56
2022/08/08 12:07:26;;;;;;;;;;;;;;;;;;5027323;28;20749;-53
2022/08/08 12:09:55;;;;;;;0.10;0.10;;;;;;;;;;5045446;28;20391;-53
2022/08/08 12:12:22;;;;;;;0.20;0.20;;;;;;;;;;5045957;28;20136;-53
2022/08/08 12:14:48;;;;;;;;;;;;;;;;;;5045373;28;20523;-56
2022/08/08 12:17:13;;;;;;;;;;;;;;;;;;5045660;28;19972;-52
2022/08/08 12:19:39;;;;;;;;;;;;;;;;;;5045240;28;19927;-58
2022/08/08 12:22:05;;;;;;;;;;;;;;;;;;5044266;28;20611;-53
2022/08/08 12:24:31;;;;;;;;;;;;;;;;;;5045608;28;20388;-61
2022/08/08 12:26:57;;;;;;;;;;;;;;;;;;5045780;28;19924;-52
2022/08/08 12:29:23;;;;;;;;;;;;;;;;;;5044865;28;19932;-57
2022/08/08 12:31:49;;;;;;;;;;;;;;;;;;5039633;28;19921;-54
2022/08/08 12:34:16;;;;;;;;;;;;;;;;;;5039362;28;20296;-59
2022/08/08 12:36:42;;;;;;;;;;;;;;;;;;5042908;28;20343;-55
2022/08/08 12:39:08;;;;;;;;;;;;;;;;;;5043336;28;19920;-60
2022/08/08 12:41:35;;;;;;;;;;;;;;;;;;5045494;28;19971;-57
2022/08/08 12:44:01;;;;;;;;;;;;;;;;;;5026640;28;19925;-56
2022/08/08 12:46:27;;;;;;;;;;;;;;;;;;5045632;28;19921;-54
2022/08/08 12:48:52;;;;;;;;;;;;;;;;;;5045175;28;20415;-57
2022/08/08 12:51:18;;;;;;;;;;;;;;;;;;5039722;28;19933;-56
2022/08/08 12:53:45;;;;;;;;;;;;;;;;;;5035045;28;19947;-56
2022/08/08 12:56:11;;;;;;;;;;;;;;;;;;5030613;28;19932;-55
2022/08/08 12:58:37;;;;;;;;;;;;;;;;;;5032896;28;19921;-55
2022/08/08 13:01:03;;;;;;;;;;;;;;;;;;5028403;28;19925;-56
2022/08/08 13:03:29;;;;;;;;;;;;;;;;;;5025825;28;19932;-59
2022/08/08 13:05:55;;;;;;;;;;;;;;;;;;5034430;28;19971;-55
2022/08/08 13:08:21;;;;;;;1.33;0.20;;;;;;;;;;5029393;28;20369;-57
2022/08/08 13:10:53;;;;;;;0.35;0.20;;;;;;;;;;5036296;28;19921;-59
2022/08/08 13:13:27;;;;;;;0.30;0.20;;;;;;;;;;5029747;28;20548;-56
2022/08/08 13:15:53;;;;;;;0.10;0.10;;;;;;;;;;5030979;28;20262;-54
2022/08/08 13:18:19;;;;;;;0.30;0.30;;;;;;;;;;5039218;28;20042;-52
2022/08/08 13:20:45;;;;;;;0.52;0.20;;;;;;;;;;5025518;28;20077;-62
2022/08/08 13:23:16;;;;;;;0.10;0.10;;;;;;;;;;5036320;28;20033;-56
2022/08/08 13:25:42;;;;;;;;;;;;;;;;;;5041078;28;20037;-52
2022/08/08 13:28:08;;;;;;;;;;;;;;;;;;5044403;28;20122;-53
2022/08/08 13:30:34;;;;;;;;;;;;;;;;;;5047547;28;19927;-54
2022/08/08 13:33:00;;;;;;;0.10;0.10;;;;;;;;;;5047456;28;19920;-56
2022/08/08 13:35:26;;;;;;;1.25;0.10;;;;;;;;;;5048906;28;20053;-58
2022/08/08 13:38:02;;;;;;;0.60;0.30;;;;;;;;;;5048738;28;20040;-58
2022/08/08 13:40:28;;;;;;;;;;;;;;;;;;5048688;28;20041;-56
2022/08/08 13:42:54;;;;;;;;;;;;;;;;;;5049129;28;19936;-57
2022/08/08 13:45:20;;;;;;;;;;;;;;;;;;5049591;28;19942;-57
2022/08/08 13:47:46;;;;;;;;;;;;;;;;;;5049373;28;19924;-53
2022/08/08 13:50:12;;;;;;;;;;;;;;;;;;5049803;28;19928;-56
2022/08/08 13:52:37;;;;;;;;;;;;;;;;;;5031170;28;19920;-58
2022/08/08 13:55:03;;;;;;;;;;;;;;;;;;5049133;28;20006;-57
2022/08/08 13:57:29;;;;;;;;;;;;;;;;;;5049408;28;20031;-52
2022/08/08 13:59:55;;;;;;;;;;;;;;;;;;5048034;28;20006;-53
2022/08/08 14:02:21;;;;;;;;;;;;;;;;;;5049548;28;19920;-50
2022/08/08 14:04:47;;;;;;;;;;;;;;;;;;5049234;28;19995;-54
2022/08/08 14:07:13;;;;;;;;;;;;;;;;;;5049079;28;19935;-53
2022/08/08 14:09:39;;;;;;;;;;;;;;;;;;5049083;28;19925;-57
2022/08/08 14:12:05;;;;;;;;;;;;;;;;;;5048672;28;20303;-55
2022/08/08 14:14:38;;;;;;;0.20;0.17;;;;;;;;;;5047989;28;19925;-53
2022/08/08 14:17:04;;;;;;;;;;;;;;;;;;5037793;28;20582;-59
2022/08/08 14:19:31;;;;;;;;;;;;;;;;;;5040770;28;20029;-53
2022/08/08 14:21:57;;;;;;;;;;;;;;;;;;5028180;28;20340;-51
2022/08/08 14:24:23;;;;;;;;;;;;;;;;;;5028754;28;19925;-59
2022/08/08 14:26:49;;;;;;;;;;;;;;;;;;5028945;28;20012;-53
2022/08/08 14:29:15;;;;;;;;;;;;;;;;;;5048306;28;19924;-59
2022/08/08 14:31:41;;;;;;;;;;;;;;;;;;5037368;28;19975;-53
2022/08/08 14:34:07;;;;;;;;;;;;;;;;;;5034561;28;19921;-58
2022/08/08 14:36:33;;;;;;;;;;;;;;;;;;5033660;28;20506;-60
2022/08/08 14:38:59;;;;;;;;;;;;;;;;;;5035344;28;19921;-57
2022/08/08 14:41:25;;;;;;;;;;;;;;;;;;5035502;28;19921;-55
2022/08/08 14:43:51;;;;;;;;;;;;;;;;;;5021723;28;19930;-53
2022/08/08 14:46:17;;;;;;;;;;;;;;;;;;5032897;28;20050;-55
2022/08/08 14:48:47;;;;;;;0.45;0.30;;;;;;;;;;5038881;28;19928;-54
2022/08/08 14:51:14;;;;;;;0.57;0.43;;;;;;;;;;5041481;28;20059;-54
2022/08/08 14:53:41;;;;;;;0.60;0.38;;;;;;;;;;5028538;28;20057;-56
2022/08/08 14:56:07;;;;;;;1.08;0.52;;;;;;;;;;5025620;28;20090;-57
2022/08/08 14:58:33;;;;;;;0.50;0.50;;;;;;;;;;5026443;28;20493;-58
2022/08/08 15:00:59;;;;;;;0.50;0.43;;;;;;;;;;5033429;28;20175;-59
2022/08/08 15:03:25;;;;;;;1.13;0.47;;;;;;;;;;5033520;28;20041;-52
2022/08/08 15:05:53;;;;;;;0.20;0.20;;;;;;;;;;5040069;28;20121;-57
2022/08/08 15:08:20;;;;;;;0.40;0.30;;;;;;;;;;5041542;28;20044;-54
2022/08/08 15:10:46;;;;;;;0.75;0.40;;;;;;;;;;5028415;28;20510;-66
2022/08/08 15:13:12;;;;;;;0.28;0.25;;;;;;;;;;5026665;28;20160;-55
2022/08/08 15:15:39;;;;;;;0.70;0.30;;;;;;;;;;5029523;28;20140;-53
2022/08/08 15:18:05;;;;;;;0.57;0.30;;;;;;;;;;5030133;28;20490;-56
2022/08/08 15:20:32;;;;;;;0.30;0.30;;;;;;;;;;5038204;28;20047;-52
2022/08/08 15:22:58;;;;;;;0.40;0.40;;;;;;;;;;5023006;28;20048;-56
2022/08/08 15:25:24;;;;;;;0.30;0.30;;;;;;;;;;5032125;28;20041;-54
2022/08/08 15:27:51;;;;;;;0.88;0.30;;;;;;;;;;5041127;28;20528;-53
2022/08/08 15:30:17;;;;;;;1.10;0.30;;;;;;;;;;5040575;28;20072;-64
2022/08/08 15:32:43;;;;;;;0.43;0.30;;;;;;;;;;5031112;28;20379;-57
2022/08/08 15:35:09;;;;;;;0.30;0.20;;;;;;;;;;5034249;28;20486;-54
2022/08/08 15:37:35;;;;;;;0.88;0.45;;;;;;;;;;5030131;28;20049;-53
2022/08/08 15:40:01;;;;;;;2.10;0.70;;;;;;;;;;5027971;28;20037;-55
2022/08/08 15:42:27;;;;;;;0.35;0.30;;;;;;;;;;5016943;28;20770;-57
2022/08/08 15:44:53;;;;;;;1.70;0.50;;;;;;;;;;5016558;28;20099;-54
2022/08/08 15:47:21;;;;;;;0.90;0.40;;;;;;;;;;5006022;28;20049;-54
2022/08/08 15:49:47;;;;;;;1.30;0.60;;;;;;;;;;5013814;28;20524;-58
2022/08/08 15:52:14;;;;;;;0.57;0.30;;;;;;;;;;5019767;28;20063;-57
2022/08/08 15:54:40;;;;;;;0.73;0.40;;;;;;;;;;5045351;28;20821;-55
2022/08/08 15:57:07;;;;;;;0.70;0.32;;;;;;;;;;5042780;28;20488;-56
2022/08/08 15:59:34;;;;;;;0.20;0.20;;;;;;;;;;5038748;28;20041;-56
2022/08/08 16:02:00;;;;;;;0.47;0.28;;;;;;;;;;5043654;28;20493;-57
2022/08/08 16:04:28;;;;;;;1.35;0.30;;;;;;;;;;5044772;28;20128;-53
2022/08/08 16:06:54;;;;;;;0.47;0.20;;;;;;;;;;5043322;28;20206;-54
2022/08/08 16:09:20;;;;;;;1.30;0.30;;;;;;;;;;5035532;28;20057;-56
2022/08/08 16:11:47;;;;;;;0.63;0.30;;;;;;;;;;5041521;28;20047;-65
2022/08/08 16:14:14;;;;;;;0.45;0.20;;;;;;;;;;5040861;28;20068;-58
2022/08/08 16:16:40;;;;;;;0.25;0.25;;;;;;;;;;5044845;28;20071;-54
2022/08/08 16:19:06;;;;;;;0.40;0.32;;;;;;;;;;5039226;28;20076;-57
2022/08/08 16:21:33;;;;;;;0.32;0.17;;;;;;;;;;5039567;28;20079;-58